PAEN/ENA METAR and TAF weather

Enter ICAO airport designator
Station Type Date Time Source
PAEN METAR 2019/05/21 19:53 UTC NOAA

PAEN 211953Z 22010KT 10SM FEW037 OVC055 10/03 A3008 RMK AO2 SLP187 T01000033


Station Type Date Time Source
PAEN Decoded METAR 2019/05/21 19:53 UTC NOAA

KENAI MUNICIPAL AIRPORT, AK, United States (PAEN) 60-35N 151-14W 25M
May 21, 2019 - 03:53 PM EDT / 2019.05.21 1953 UTC
Wind: from the SW (220 degrees) at 12 MPH (10 KT):0
Visibility: 10 mile(s):0
Sky conditions: overcast
Temperature: 50.0 F (10.0 C)
Dew Point: 37.9 F (3.3 C)
Relative Humidity: 63%
Pressure (altimeter): 30.08 in. Hg (1018 hPa)
ob: PAEN 211953Z 22010KT 10SM FEW037 OVC055 10/03 A3008 RMK AO2 SLP187 T01000033
cycle: 20

Station Type Date Time Source
PAEN TAF 2019/05/21 18:34 UTC NOAA

TAF PAEN 211731Z 2118/2218 22009KT P6SM SCT050 BKN100

Example: see airport list